createdAt,value
2018-11-01T10:20:28.474Z,12.00
2018-11-01T10:22:57.028Z,12.10
2018-11-01T10:25:25.523Z,12.00
2018-11-01T10:27:53.881Z,11.80
2018-11-01T10:30:22.777Z,11.80
2018-11-01T10:32:51.180Z,11.80
2018-11-01T10:35:19.777Z,11.80
2018-11-01T10:37:48.340Z,11.80
2018-11-01T10:40:18.281Z,11.90
2018-11-01T10:42:46.819Z,11.90
2018-11-01T10:45:15.325Z,11.80
2018-11-01T10:47:43.829Z,11.70
2018-11-01T10:50:15.619Z,11.80
2018-11-01T10:52:44.033Z,11.80
2018-11-01T10:55:13.072Z,11.70
2018-11-01T10:57:41.746Z,11.50
2018-11-01T11:00:16.547Z,11.70
2018-11-01T11:02:47.620Z,11.80
2018-11-01T11:05:17.445Z,11.80
2018-11-01T11:07:46.455Z,11.90
2018-11-01T12:46:36.229Z,12.00
2018-11-01T12:49:04.710Z,14.00
2018-11-01T12:51:33.097Z,13.80
2018-11-01T12:56:29.704Z,13.80
2018-11-01T12:58:58.013Z,13.70
2018-11-01T13:01:26.429Z,13.70
2018-11-01T13:03:54.912Z,13.80
2018-11-01T13:06:23.544Z,13.80
2018-11-01T13:08:52.150Z,13.70
2018-11-01T13:11:20.742Z,13.60
2018-11-01T13:16:17.585Z,13.30
2018-11-01T13:18:46.605Z,13.30
2018-11-01T13:21:15.241Z,13.20
2018-11-01T13:23:43.833Z,13.10
2018-11-01T13:26:12.229Z,12.90
2018-11-01T13:28:41.178Z,13.00
2018-11-01T13:31:09.768Z,13.10
2018-11-01T13:33:39.086Z,13.00
2018-11-01T13:36:07.593Z,13.00
2018-11-01T13:38:36.013Z,12.90
2018-11-01T13:41:05.110Z,12.80
2018-11-01T13:43:33.513Z,12.80
2018-11-01T13:48:30.138Z,12.50
2018-11-01T13:50:58.504Z,12.30
2018-11-01T13:53:27.500Z,12.30
2018-11-01T13:55:56.000Z,12.30
2018-11-01T13:58:24.415Z,12.30
2018-11-01T14:00:52.792Z,12.40
2018-11-01T14:03:21.202Z,12.40
2018-11-01T14:05:49.823Z,12.40
2018-11-01T14:08:18.170Z,12.40
2018-11-01T14:10:46.593Z,12.40
2018-11-01T14:13:15.105Z,12.50
2018-11-01T14:15:43.523Z,12.50
2018-11-01T14:18:11.985Z,12.40
2018-11-01T14:20:40.455Z,12.40
2018-11-01T14:23:09.113Z,12.40
2018-11-01T14:25:37.701Z,12.40
2018-11-01T14:28:06.221Z,12.40
2018-11-01T14:30:34.642Z,12.30
2018-11-01T14:33:03.040Z,12.20
2018-11-01T14:35:31.617Z,12.40
2018-11-01T14:38:00.094Z,12.30
2018-11-01T14:40:28.572Z,12.20
2018-11-01T14:42:58.169Z,12.40
2018-11-01T14:45:26.664Z,12.30
2018-11-01T14:47:55.214Z,12.30
2018-11-01T14:50:23.660Z,12.30
2018-11-01T14:52:52.885Z,12.50
2018-11-01T14:55:21.573Z,12.40
2018-11-01T14:57:50.928Z,12.40
2018-11-01T15:00:17.764Z,12.40
2018-11-01T15:02:46.343Z,12.30
2018-11-01T15:05:14.881Z,12.20
2018-11-01T15:07:43.350Z,12.10
2018-11-01T15:10:13.655Z,12.20
2018-11-01T15:12:42.958Z,12.20
2018-11-01T15:15:11.856Z,12.10
2018-11-01T15:17:41.152Z,11.90
2018-11-01T15:20:10.349Z,11.90
2018-11-01T15:22:38.780Z,11.80
2018-11-01T15:25:08.254Z,11.90
2018-11-01T15:27:37.115Z,11.90
2018-11-01T15:30:08.528Z,11.90
2018-11-01T15:32:37.008Z,11.80
2018-11-01T15:35:06.693Z,12.00
2018-11-01T15:37:35.405Z,12.00
2018-11-01T15:40:04.095Z,11.80
2018-11-01T15:42:32.594Z,11.90
2018-11-01T15:45:01.492Z,11.80
2018-11-01T15:47:30.017Z,11.80
2018-11-01T15:49:58.561Z,11.70
2018-11-01T15:52:27.052Z,11.70
2018-11-01T15:54:55.537Z,11.70
2018-11-01T15:57:24.096Z,11.80
2018-11-01T15:59:52.509Z,11.70
2018-11-01T16:02:21.010Z,11.70
2018-11-01T16:04:49.341Z,11.80
2018-11-01T16:07:17.865Z,11.70
2018-11-01T16:09:46.285Z,11.60
2018-11-01T16:12:14.798Z,11.70
2018-11-01T16:14:43.212Z,11.60
2018-11-01T16:17:12.101Z,11.60
2018-11-01T16:19:40.607Z,11.60
2018-11-01T16:22:09.096Z,11.60
2018-11-01T16:24:37.634Z,11.70
2018-11-01T16:27:06.220Z,11.60
2018-11-01T16:29:35.137Z,11.60
2018-11-01T16:32:03.685Z,11.50
2018-11-01T16:34:32.185Z,11.40
2018-11-01T16:37:00.782Z,11.40
2018-11-01T16:39:29.181Z,11.30
2018-11-01T16:41:57.612Z,11.30
2018-11-01T16:44:26.065Z,11.20
2018-11-01T16:46:54.657Z,11.40
2018-11-01T16:49:23.177Z,11.50
2018-11-01T16:51:51.744Z,11.40
2018-11-01T16:54:20.174Z,11.40
2018-11-01T16:56:48.621Z,11.40
2018-11-01T16:59:17.061Z,11.40
2018-11-01T17:01:46.813Z,11.50
2018-11-01T17:04:15.252Z,11.30
2018-11-01T17:06:43.673Z,11.40
2018-11-01T17:09:12.282Z,11.30
2018-11-01T17:11:41.012Z,11.30
2018-11-01T17:14:09.419Z,11.50
2018-11-01T17:16:38.286Z,11.50
2018-11-01T17:19:07.414Z,11.40
2018-11-01T17:21:36.093Z,11.40
2018-11-01T17:24:04.626Z,11.40
2018-11-01T17:26:33.041Z,11.30
2018-11-01T17:29:01.635Z,11.30
2018-11-01T17:31:31.045Z,11.20
2018-11-01T17:33:59.733Z,11.20
2018-11-01T17:36:28.268Z,11.10
2018-11-01T17:38:56.697Z,11.10
2018-11-01T17:41:25.656Z,11.20
2018-11-01T17:43:54.163Z,11.30
2018-11-01T17:46:22.545Z,11.20
2018-11-01T17:48:51.023Z,11.20
2018-11-01T17:51:19.654Z,11.20
2018-11-01T17:53:47.993Z,11.20
2018-11-01T17:56:16.464Z,11.30
2018-11-01T17:58:45.478Z,11.20
2018-11-01T18:01:14.017Z,11.30
2018-11-01T18:03:43.220Z,11.30
2018-11-01T18:06:12.009Z,11.20
2018-11-01T18:08:40.448Z,11.30
2018-11-01T18:11:08.861Z,11.30
2018-11-01T18:13:37.322Z,11.40
2018-11-01T18:16:05.830Z,11.50
2018-11-01T18:18:34.327Z,11.50
2018-11-01T18:21:02.722Z,11.60
2018-11-01T18:23:31.330Z,11.60
2018-11-01T18:25:59.673Z,11.40
2018-11-01T18:28:28.156Z,11.30
2018-11-01T18:30:56.664Z,11.20
2018-11-01T18:33:26.018Z,11.20
2018-11-01T18:35:54.515Z,11.20
2018-11-01T18:38:23.121Z,11.20
2018-11-01T18:40:51.740Z,11.00
2018-11-01T18:43:20.306Z,10.90
2018-11-01T18:45:48.864Z,10.90
2018-11-01T18:48:17.408Z,10.80
2018-11-01T18:50:45.828Z,10.70
2018-11-01T18:53:15.638Z,10.70
2018-11-01T18:55:44.077Z,10.70
2018-11-01T18:58:12.521Z,10.70
2018-11-01T19:00:41.775Z,10.70
2018-11-01T19:03:10.225Z,10.60
2018-11-01T19:05:38.694Z,10.60
2018-11-01T19:08:07.118Z,10.50
2018-11-01T19:10:35.667Z,10.60
2018-11-01T19:13:04.206Z,10.60
2018-11-01T19:15:32.722Z,10.60
2018-11-01T19:18:01.149Z,10.50
2018-11-01T19:20:29.596Z,10.40
2018-11-01T19:22:58.129Z,10.40
2018-11-01T19:25:26.617Z,10.40
2018-11-01T19:27:55.191Z,10.40
2018-11-01T19:30:24.038Z,10.30
2018-11-01T19:32:52.498Z,10.20
2018-11-01T19:35:21.025Z,10.20
2018-11-01T19:37:49.537Z,10.00
2018-11-01T19:40:18.129Z,10.00
2018-11-01T19:42:46.457Z,10.10
2018-11-01T19:45:15.004Z,10.10
2018-11-01T19:47:43.483Z,10.10
2018-11-01T19:50:14.353Z,10.00
2018-11-01T19:52:43.144Z,9.90
2018-11-01T19:55:11.899Z,9.80
2018-11-01T19:57:40.727Z,9.80
2018-11-01T20:00:11.132Z,9.80
2018-11-01T20:02:39.775Z,9.90
2018-11-01T20:05:09.534Z,10.00
2018-11-01T20:07:38.082Z,10.00
2018-11-01T20:10:08.152Z,10.00
2018-11-01T20:12:36.828Z,9.90
2018-11-01T20:15:05.926Z,9.80
2018-11-01T20:17:34.602Z,9.90
2018-11-01T20:20:03.452Z,9.90
2018-11-01T20:22:31.936Z,9.90
2018-11-01T20:25:00.453Z,9.70
2018-11-01T20:27:29.045Z,9.60
2018-11-01T20:29:57.409Z,9.70
2018-11-01T20:32:25.996Z,9.70
2018-11-01T20:34:54.516Z,9.60
2018-11-01T20:37:23.073Z,9.50
2018-11-01T20:39:51.849Z,9.60
2018-11-01T20:42:20.373Z,9.70
2018-11-01T20:44:48.825Z,9.70
2018-11-01T20:47:17.236Z,9.70
2018-11-01T20:49:46.624Z,9.70
2018-11-01T20:52:15.019Z,9.80
2018-11-01T20:54:43.416Z,9.70
2018-11-01T20:57:12.012Z,9.80
2018-11-01T20:59:40.337Z,9.70
2018-11-01T21:02:08.850Z,9.60
2018-11-01T21:04:37.253Z,9.60
2018-11-01T21:07:06.493Z,9.50
2018-11-01T21:09:34.928Z,9.40
2018-11-01T21:12:03.341Z,9.40
2018-11-01T21:14:32.777Z,9.50
2018-11-01T21:17:01.317Z,9.40
2018-11-01T21:19:29.766Z,9.50
2018-11-01T21:21:58.303Z,9.40
2018-11-01T21:24:26.761Z,9.30
2018-11-01T21:26:55.237Z,9.40
2018-11-01T21:29:23.999Z,9.30
2018-11-01T21:31:52.542Z,9.30
2018-11-01T21:34:21.483Z,9.40
2018-11-01T21:36:50.048Z,9.40
2018-11-01T21:39:19.178Z,9.30
2018-11-01T21:41:47.682Z,9.30
2018-11-01T21:44:16.096Z,9.20
2018-11-01T21:46:44.605Z,9.20
2018-11-01T21:49:13.097Z,9.20
2018-11-01T21:51:41.497Z,9.30
2018-11-01T21:54:10.179Z,9.30
2018-11-01T21:56:38.601Z,9.40
2018-11-01T21:59:07.142Z,9.40
2018-11-01T22:01:35.660Z,9.40
2018-11-01T22:04:04.432Z,9.30
2018-11-01T22:06:33.421Z,9.40
2018-11-01T22:09:01.910Z,9.30
2018-11-01T22:11:30.496Z,9.40
2018-11-01T22:13:58.891Z,9.40
2018-11-01T22:16:27.470Z,9.40
2018-11-01T22:18:55.866Z,9.30
2018-11-01T22:21:24.392Z,9.30
2018-11-01T22:23:52.884Z,9.30
2018-11-01T22:26:21.417Z,9.30
2018-11-01T22:28:50.045Z,9.40
2018-11-01T22:31:18.418Z,9.40
2018-11-01T22:33:46.836Z,9.40
2018-11-01T22:36:15.546Z,9.30
2018-11-01T22:38:44.093Z,9.30
2018-11-01T22:41:12.669Z,9.20
2018-11-01T22:43:41.055Z,9.10
2018-11-01T22:46:09.601Z,9.00
2018-11-01T22:48:38.025Z,9.10
2018-11-01T22:51:07.022Z,9.00
2018-11-01T22:53:35.444Z,9.00
2018-11-01T22:56:03.985Z,9.00
2018-11-01T22:58:32.377Z,9.00
2018-11-01T23:01:00.774Z,9.00
2018-11-01T23:03:29.665Z,8.90
2018-11-01T23:05:58.024Z,9.00
2018-11-01T23:08:26.560Z,9.10
2018-11-01T23:10:54.990Z,9.10
2018-11-01T23:13:23.528Z,9.00
2018-11-01T23:15:52.045Z,9.00
2018-11-01T23:18:20.560Z,9.00
2018-11-01T23:20:48.945Z,8.90
2018-11-01T23:23:17.472Z,9.00
2018-11-01T23:25:45.989Z,8.90
2018-11-01T23:28:14.501Z,9.00
2018-11-01T23:30:43.000Z,9.00
2018-11-01T23:33:11.676Z,9.00
2018-11-01T23:35:39.937Z,9.00
2018-11-01T23:38:13.844Z,9.10
2018-11-01T23:40:47.725Z,9.10
2018-11-01T23:43:21.528Z,9.10
2018-11-01T23:45:55.465Z,9.20
2018-11-01T23:48:23.192Z,9.20
2018-11-01T23:51:05.891Z,9.20
2018-11-01T23:53:37.788Z,9.20
2018-11-01T23:56:06.216Z,9.20
2018-11-01T23:58:34.708Z,9.30
